Time;durP1;ratioP1;P1;durP2;ratioP2;P2;SDS_P1;SDS_P2;PMS_P1;PMS_P2;Temp;Humidity;BMP_temperature;BMP_pressure;BME280_temperature;BME280_humidity;BME280_pressure;Samples;Min_cycle;Max_cycle;Signal;HPM_P1;HPM_P2
2023/10/05 00:02:11;;;;;;;4.28;1.30;;;;;;;13.11;84.03;102125.41;7396467;19;19930;-69
2023/10/05 00:04:45;;;;;;;4.80;1.20;;;;;;;13.09;84.34;102120.09;7397080;19;20617;-69
2023/10/05 00:07:19;;;;;;;7.28;1.40;;;;;;;13.10;84.23;102126.38;7398877;19;19929;-69
2023/10/05 00:09:48;;;;;;;2.88;1.20;;;;;;;13.08;84.13;102123.81;7387808;19;19973;-69
2023/10/05 00:12:22;;;;;;;5.63;1.27;;;;;;;13.09;84.26;102113.84;7397463;19;19939;-69
2023/10/05 00:15:02;;;;;;;5.30;1.73;;;;;;;13.09;84.11;102113.84;7398171;19;19925;-69
2023/10/05 00:17:32;;;;;;;6.30;1.48;;;;;;;13.07;84.28;102119.41;7397517;19;19943;-69
2023/10/05 00:20:09;;;;;;;4.32;1.20;;;;;;;13.07;84.75;102107.78;7395627;19;19930;-69
2023/10/05 00:22:38;;;;;;;2.85;1.10;;;;;;;13.06;84.46;102112.31;7397337;19;20409;-69
2023/10/05 00:25:10;;;;;;;2.75;1.00;;;;;;;13.07;84.64;102121.28;7389901;19;23538;-69
2023/10/05 00:27:39;;;;;;;7.18;1.20;;;;;;;13.07;85.02;102121.28;7393634;19;20418;-69
2023/10/05 00:30:12;;;;;;;3.13;1.00;;;;;;;13.07;84.67;102121.28;7398207;19;20269;-69
2023/10/05 00:32:47;;;;;;;6.00;1.50;;;;;;;13.08;85.14;102106.72;7394050;19;19923;-69
2023/10/05 00:35:24;;;;;;;3.22;1.33;;;;;;;13.10;84.98;102112.84;7394316;19;19929;-70
2023/10/05 00:37:57;;;;;;;6.35;1.67;;;;;;;13.10;84.81;102108.31;7395385;19;19926;-69
2023/10/05 00:40:35;;;;;;;5.63;1.35;;;;;;;13.12;84.74;102100.88;7396870;19;20411;-69
2023/10/05 00:43:14;;;;;;;3.95;1.35;;;;;;;13.13;85.17;102099.88;7397105;19;19918;-69
2023/10/05 00:45:47;;;;;;;6.07;1.60;;;;;;;13.14;85.12;102092.59;7390300;19;19930;-70
2023/10/05 00:48:27;;;;;;;6.25;1.23;;;;;;;13.14;85.23;102098.84;7391500;19;19942;-69
2023/10/05 00:51:01;;;;;;;4.22;1.10;;;;;;;13.13;85.74;102101.72;7394765;19;19929;-69
2023/10/05 00:53:30;;;;;;;3.45;1.10;;;;;;;13.10;85.74;102096.63;7388244;19;19918;-69
2023/10/05 00:56:07;;;;;;;6.60;1.20;;;;;;;13.08;85.66;102087.78;7394123;19;19944;-69
2023/10/05 00:58:42;;;;;;;7.18;1.67;;;;;;;13.06;85.96;102093.38;7393144;19;19986;-70
2023/10/05 01:01:21;;;;;;;4.53;1.10;;;;;;;13.04;85.79;102086.44;7396552;19;19919;-69
2023/10/05 01:04:18;;;;;;;4.28;1.25;;;;;;;13.01;86.05;102084.91;7396195;19;19993;-69
2023/10/05 01:06:55;;;;;;;5.10;1.45;;;;;;;12.98;86.59;102093.38;7396451;19;20019;-69
2023/10/05 01:09:42;;;;;;;7.38;1.45;;;;;;;12.98;86.86;102111.44;7394699;19;19934;-69
2023/10/05 01:12:22;;;;;;;3.38;1.58;;;;;;;12.94;87.08;102105.53;7396586;19;19937;-70
2023/10/05 01:14:53;;;;;;;6.55;1.88;;;;;;;12.92;86.84;102103.97;7393687;19;19922;-69
2023/10/05 01:17:25;;;;;;;5.53;1.60;;;;;;;12.92;87.32;102095.84;7392695;19;19926;-69
2023/10/05 01:19:56;;;;;;;7.55;1.33;;;;;;;12.89;86.99;102101.59;7396563;19;19923;-69
2023/10/05 01:22:32;;;;;;;8.48;1.55;;;;;;;12.87;87.33;102098.19;7395372;19;19918;-69
2023/10/05 01:25:04;;;;;;;6.55;1.27;;;;;;;12.86;87.59;102083.81;7391539;19;19939;-69
2023/10/05 01:27:33;;;;;;;6.70;1.15;;;;;;;12.86;87.83;102077.56;7391769;19;20637;-69
2023/10/05 01:30:03;;;;;;;5.32;1.35;;;;;;;12.86;87.88;102077.56;7392229;19;19918;-69
2023/10/05 01:32:32;;;;;;;8.18;1.35;;;;;;;12.85;87.91;102073.19;7381596;19;19915;-69
2023/10/05 01:35:06;;;;;;;7.95;2.53;;;;;;;12.85;88.08;102082.16;7393407;19;19922;-69
2023/10/05 01:37:36;;;;;;;9.38;1.50;;;;;;;12.84;87.99;102080.44;7387682;19;20698;-69
2023/10/05 01:40:19;;;;;;;3.45;1.20;;;;;;;12.85;88.44;102079.44;7393379;19;19935;-69
2023/10/05 01:42:48;;;;;;;3.85;1.17;;;;;;;12.85;88.55;102087.56;7391804;19;20724;-69
2023/10/05 01:45:24;;;;;;;4.88;1.48;;;;;;;12.86;88.43;102081.13;7392856;19;19918;-69
2023/10/05 01:47:54;;;;;;;8.10;1.50;;;;;;;12.87;88.52;102079.25;7394328;19;19915;-69
2023/10/05 01:50:23;;;;;;;4.57;1.23;;;;;;;12.90;88.67;102078.97;7396099;19;19929;-69
2023/10/05 01:52:56;;;;;;;5.40;1.23;;;;;;;12.93;88.44;102082.19;7387349;19;19922;-69
2023/10/05 01:55:34;;;;;;;6.43;1.92;;;;;;;12.94;88.89;102080.31;7387970;19;20002;-69
2023/10/05 01:58:04;;;;;;;8.40;1.35;;;;;;;12.95;88.69;102087.41;7394400;19;19932;-70
2023/10/05 02:00:38;;;;;;;7.63;1.67;;;;;;;12.96;88.95;102083.69;7394830;19;19918;-69
2023/10/05 02:03:11;;;;;;;3.75;1.35;;;;;;;12.97;88.77;102090.81;7392540;19;19930;-69
2023/10/05 02:05:41;;;;;;;5.82;1.50;;;;;;;12.96;88.83;102089.09;7394534;19;19926;-70
2023/10/05 02:08:12;;;;;;;6.75;1.17;;;;;;;12.96;89.08;102078.28;7392702;19;19926;-69
2023/10/05 02:10:46;;;;;;;5.03;1.20;;;;;;;12.97;89.37;102074.56;7389565;19;19919;-69
2023/10/05 02:13:16;;;;;;;4.32;1.50;;;;;;;12.98;89.48;102081.69;7399169;19;19926;-69
2023/10/05 02:15:49;;;;;;;7.30;1.50;;;;;;;12.98;89.30;102087.09;7396564;19;19914;-69
2023/10/05 02:18:23;;;;;;;6.90;1.15;;;;;;;12.99;89.36;102088.78;7400919;19;19934;-69
2023/10/05 02:20:56;;;;;;;5.88;1.77;;;;;;;13.01;89.55;102086.75;7399222;19;19918;-69
2023/10/05 02:23:28;;;;;;;4.32;1.20;;;;;;;13.01;89.30;102086.75;7399964;19;19918;-69
2023/10/05 02:26:07;;;;;;;4.70;1.23;;;;;;;13.01;89.76;102081.34;7398389;19;19922;-69
2023/10/05 02:28:39;;;;;;;6.65;1.30;;;;;;;13.02;89.09;102083.91;7398515;19;19934;-69
2023/10/05 02:31:11;;;;;;;5.70;2.10;;;;;;;13.03;89.58;102079.34;7398462;19;19943;-69
2023/10/05 02:33:40;;;;;;;6.95;1.90;;;;;;;13.04;89.60;102087.28;7396855;19;19927;-69
2023/10/05 02:36:20;;;;;;;4.13;1.23;;;;;;;13.04;89.52;102075.59;7391199;19;19939;-69
2023/10/05 02:38:53;;;;;;;4.15;1.40;;;;;;;13.05;89.47;102066.50;7394067;19;19919;-69
2023/10/05 02:41:37;;;;;;;2.42;1.15;;;;;;;13.04;89.58;102067.50;7396206;19;19919;-69
2023/10/05 02:44:16;;;;;;;6.50;1.50;;;;;;;13.04;89.36;102072.91;7396209;19;19918;-69
2023/10/05 02:46:47;;;;;;;5.97;1.40;;;;;;;13.02;90.02;102054.16;7397436;19;19940;-70
2023/10/05 02:49:16;;;;;;;5.07;1.55;;;;;;;13.02;89.74;102056.00;7393631;19;19923;-70
2023/10/05 02:51:45;;;;;;;6.88;2.22;;;;;;;13.01;89.48;102057.00;7398779;19;19924;-70
2023/10/05 02:54:14;;;;;;;6.05;1.30;;;;;;;13.01;89.73;102048.91;7387890;19;19949;-69
2023/10/05 02:56:46;;;;;;;4.63;1.27;;;;;;;13.01;90.20;102051.59;7394738;19;19978;-69
2023/10/05 02:59:15;;;;;;;4.63;1.02;;;;;;;12.99;89.80;102054.47;7399883;19;19923;-69
2023/10/05 03:01:44;;;;;;;8.60;1.10;;;;;;;13.00;90.07;102053.44;7398180;19;20346;-68
2023/10/05 03:04:16;;;;;;;5.65;1.45;;;;;;;13.00;90.03;102047.19;7398624;19;20290;-69
2023/10/05 03:06:48;;;;;;;3.72;1.60;;;;;;;13.01;89.94;102054.31;7399337;19;19934;-69
2023/10/05 03:09:18;;;;;;;2.17;0.90;;;;;;;13.01;89.82;102046.19;7400809;19;19962;-69
2023/10/05 03:11:49;;;;;;;3.80;1.15;;;;;;;13.02;90.05;102046.03;7391964;19;19971;-69
2023/10/05 03:14:18;;;;;;;;;;;;;;;12.92;91.22;102049.88;7401139;19;20325;-70
2023/10/05 03:16:48;;;;;;;5.85;1.27;;;;;;;12.99;90.09;102061.72;7399212;19;19914;-69
2023/10/05 03:19:21;;;;;;;6.20;1.80;;;;;;;13.01;90.17;102051.59;7399561;19;19926;-69
2023/10/05 03:21:52;;;;;;;6.65;1.73;;;;;;;13.03;89.82;102058.53;7398025;19;19918;-69
2023/10/05 03:24:24;;;;;;;5.57;1.70;;;;;;;13.03;89.82;102049.59;7398749;19;20341;-69
2023/10/05 03:26:56;;;;;;;6.65;1.30;;;;;;;13.06;89.78;102057.38;7400201;19;19924;-69
2023/10/05 03:29:26;;;;;;;4.90;1.33;;;;;;;13.07;89.49;102040.94;7392806;19;19961;-69
2023/10/05 03:31:55;;;;;;;10.45;1.25;;;;;;;13.08;89.28;102050.78;7395581;19;20258;-69
2023/10/05 03:34:26;;;;;;;6.97;1.20;;;;;;;13.08;89.60;102058.88;7397701;19;19922;-70
2023/10/05 03:36:55;;;;;;;7.88;1.58;;;;;;;13.10;89.53;102058.72;7399863;19;19974;-70
2023/10/05 03:39:28;;;;;;;7.35;1.40;;;;;;;13.12;89.61;102057.56;7394445;19;19922;-69
2023/10/05 03:41:59;;;;;;;6.72;1.40;;;;;;;13.13;89.22;102059.28;7396891;19;19922;-69
2023/10/05 03:44:28;;;;;;;7.18;1.85;;;;;;;13.15;89.21;102059.13;7396688;19;19950;-69
2023/10/05 03:46:56;;;;;;;5.05;1.20;;;;;;;13.18;89.62;102058.78;7396526;19;19923;-70
2023/10/05 03:49:25;;;;;;;6.00;2.17;;;;;;;13.20;89.39;102056.78;7397276;19;19929;-69
2023/10/05 03:51:55;;;;;;;6.35;1.60;;;;;;;13.21;89.24;102058.44;7396304;19;19933;-70
2023/10/05 03:54:25;;;;;;;4.05;1.30;;;;;;;13.23;89.34;102063.69;7388525;19;19922;-69
2023/10/05 03:57:04;;;;;;;3.58;1.15;;;;;;;13.24;89.14;102058.13;7393916;19;19939;-69
2023/10/05 03:59:36;;;;;;;5.28;1.45;;;;;;;13.24;89.46;102057.28;7395539;19;19946;-69
2023/10/05 04:02:06;;;;;;;6.72;1.98;;;;;;;13.23;89.58;102053.72;7394686;19;19918;-69
2023/10/05 04:04:36;;;;;;;6.63;1.20;;;;;;;13.23;89.37;102053.72;7396933;19;19930;-70
2023/10/05 04:07:05;;;;;;;7.63;1.35;;;;;;;13.20;89.29;102054.06;7396578;19;19929;-69
2023/10/05 04:09:35;;;;;;;4.20;1.00;;;;;;;13.20;89.44;102051.38;7397757;19;19926;-69
2023/10/05 04:12:10;;;;;;;3.90;1.50;;;;;;;13.20;89.22;102047.81;7388277;19;19958;-69
2023/10/05 04:14:41;;;;;;;9.65;1.50;;;;;;;13.18;89.63;102056.94;7395423;19;19950;-70
2023/10/05 04:17:11;;;;;;;6.95;1.52;;;;;;;13.16;89.71;102049.97;7394947;19;19926;-69
2023/10/05 04:19:41;;;;;;;4.45;1.48;;;;;;;13.15;89.71;102059.97;7395791;19;19927;-69
2023/10/05 04:22:14;;;;;;;7.03;1.30;;;;;;;13.12;89.56;102056.72;7398678;19;19929;-69
2023/10/05 04:24:44;;;;;;;8.45;2.03;;;;;;;13.09;89.81;102063.28;7396938;19;20297;-70
2023/10/05 04:27:13;;;;;;;5.53;1.38;;;;;;;13.07;90.28;102051.78;7398721;19;19958;-69
2023/10/05 04:29:44;;;;;;;9.00;1.52;;;;;;;13.06;90.07;102055.50;7389695;19;19922;-69
2023/10/05 04:32:15;;;;;;;7.32;1.30;;;;;;;13.04;90.13;102060.22;7396129;19;19925;-69
2023/10/05 04:34:44;;;;;;;5.80;1.25;;;;;;;13.03;90.54;102068.53;7397123;19;19930;-69
2023/10/05 04:37:12;;;;;;;4.70;1.35;;;;;;;13.01;90.16;102068.69;7397153;19;19922;-70
2023/10/05 04:39:43;;;;;;;7.00;1.63;;;;;;;12.98;90.28;102065.47;7396395;19;19923;-69
2023/10/05 04:42:15;;;;;;;7.13;1.23;;;;;;;12.97;90.23;102056.50;7399139;19;19959;-69
2023/10/05 04:44:46;;;;;;;8.45;1.30;;;;;;;12.97;90.23;102061.91;7398957;19;19937;-69
2023/10/05 04:47:16;;;;;;;6.50;1.45;;;;;;;12.95;90.33;102066.63;7393856;19;19930;-69
2023/10/05 04:49:44;;;;;;;6.30;1.10;;;;;;;12.93;90.75;102056.97;7395089;19;20026;-69
2023/10/05 04:52:19;;;;;;;7.88;1.50;;;;;;;12.93;90.36;102051.56;7394432;19;19918;-69
2023/10/05 04:54:56;;;;;;;4.20;1.73;;;;;;;12.91;90.77;102054.44;7386081;19;19927;-70
2023/10/05 04:57:35;;;;;;;9.13;1.58;;;;;;;12.90;90.64;102057.31;7393418;19;19934;-70
2023/10/05 05:03:05;;;;;;;10.98;2.28;;;;;;;12.91;90.86;102054.44;7385358;19;19932;-70
2023/10/05 05:05:53;;;;;;;8.90;1.92;;;;;;;12.90;90.68;102058.13;7396428;19;19918;-69
2023/10/05 05:08:22;;;;;;;4.93;1.60;;;;;;;12.88;90.69;102045.81;7394749;19;19931;-69
2023/10/05 05:10:51;;;;;;;6.82;2.20;;;;;;;12.88;90.58;102046.66;7396017;19;19922;-69
2023/10/05 05:13:20;;;;;;;7.20;1.52;;;;;;;12.88;90.69;102054.78;7397211;19;19930;-69
2023/10/05 05:15:52;;;;;;;7.30;1.83;;;;;;;12.89;91.17;102055.63;7395589;19;19922;-69
2023/10/05 05:18:22;;;;;;;7.00;1.33;;;;;;;12.89;90.82;102067.28;7390033;19;19922;-69
2023/10/05 05:20:53;;;;;;;9.13;1.35;;;;;;;12.91;90.84;102067.97;7393310;19;19923;-69
2023/10/05 05:23:22;;;;;;;;;;;;;;;12.82;91.70;102071.63;7395978;19;19922;-69
2023/10/05 05:25:52;;;;;;;11.43;1.52;;;;;;;12.90;90.84;102058.13;7392674;19;19927;-69
2023/10/05 05:28:21;;;;;;;5.70;1.30;;;;;;;12.93;90.84;102062.38;7395622;19;19919;-69
2023/10/05 05:30:53;;;;;;;8.88;1.52;;;;;;;12.95;90.76;102060.34;7396339;19;19923;-69
2023/10/05 05:33:22;;;;;;;8.40;1.48;;;;;;;12.94;90.70;102064.09;7390271;19;20016;-69
2023/10/05 05:35:54;;;;;;;5.93;2.03;;;;;;;12.93;91.02;102063.25;7395222;19;20352;-69
2023/10/05 05:38:22;;;;;;;5.80;1.38;;;;;;;12.93;90.59;102055.13;7386193;19;20251;-69
2023/10/05 05:40:53;;;;;;;7.50;1.70;;;;;;;12.92;90.67;102055.28;7376112;19;19919;-69
2023/10/05 05:43:21;;;;;;;6.18;1.75;;;;;;;12.92;90.83;102060.69;7381082;19;20568;-69
2023/10/05 05:45:53;;;;;;;7.13;1.77;;;;;;;12.90;90.87;102055.44;7378148;19;20002;-69
2023/10/05 05:48:21;;;;;;;6.75;1.52;;;;;;;12.90;90.96;102068.13;7380465;19;20489;-69
2023/10/05 05:50:50;;;;;;;7.80;1.30;;;;;;;12.90;90.94;102060.84;7394448;19;19922;-70
2023/10/05 05:53:21;;;;;;;14.20;2.78;;;;;;;12.91;91.29;102056.28;7397061;19;19930;-69
2023/10/05 05:55:53;;;;;;;4.95;1.70;;;;;;;12.93;91.03;102062.38;7385077;19;19930;-69
2023/10/05 05:58:21;;;;;;;7.65;1.88;;;;;;;12.93;91.12;102067.81;7397964;19;19934;-69
2023/10/05 06:00:54;;;;;;;7.32;1.70;;;;;;;12.98;90.92;102076.28;7396270;19;19923;-69
2023/10/05 06:03:24;;;;;;;8.48;2.10;;;;;;;12.99;90.78;102084.22;7390447;19;20024;-70
2023/10/05 06:05:53;;;;;;;11.13;1.60;;;;;;;13.03;90.95;102082.88;7391360;19;19922;-71
2023/10/05 06:08:22;;;;;;;7.55;1.33;;;;;;;13.08;90.94;102090.50;7375922;19;19956;-70
2023/10/05 06:10:51;;;;;;;14.63;1.83;;;;;;;13.12;90.93;102084.63;7379277;19;20312;-71
2023/10/05 06:13:20;;;;;;;7.53;2.00;;;;;;;13.17;90.65;102086.84;7388779;19;19927;-71
2023/10/05 06:15:48;;;;;;;4.47;1.50;;;;;;;13.21;90.46;102088.22;7385771;19;20536;-72
2023/10/05 06:18:20;;;;;;;8.75;1.70;;;;;;;13.26;90.50;102093.97;7390134;19;19914;-70
2023/10/05 06:20:49;;;;;;;12.32;2.22;;;;;;;13.30;90.50;102103.47;7382458;19;20019;-71
2023/10/05 06:23:18;;;;;;;7.95;1.77;;;;;;;13.33;90.59;102097.72;7376001;19;19969;-70
2023/10/05 06:25:48;;;;;;;10.43;2.65;;;;;;;13.37;90.50;102100.97;7387696;19;19956;-70
2023/10/05 06:28:17;;;;;;;8.15;1.90;;;;;;;13.39;90.36;102104.34;7394214;19;19922;-70
2023/10/05 06:30:45;;;;;;;9.07;1.55;;;;;;;13.41;90.22;102100.47;7394243;19;20281;-69
2023/10/05 06:33:14;;;;;;;6.75;1.80;;;;;;;13.44;90.49;102105.53;7393233;19;19942;-69
2023/10/05 06:35:45;;;;;;;8.68;2.22;;;;;;;13.47;90.33;102104.34;7397749;19;19939;-69
2023/10/05 06:38:15;;;;;;;7.15;2.17;;;;;;;13.50;90.33;102109.47;7381307;19;19914;-69
2023/10/05 06:40:44;;;;;;;10.75;2.38;;;;;;;13.52;90.03;102108.25;7387374;19;19943;-70
2023/10/05 06:43:15;;;;;;;13.18;2.13;;;;;;;13.54;90.02;102106.25;7394050;19;19946;-69
2023/10/05 06:45:48;;;;;;;4.80;1.30;;;;;;;13.58;90.29;102115.72;7396048;19;19918;-70
2023/10/05 06:48:18;;;;;;;8.25;1.95;;;;;;;13.61;90.01;102119.97;7394525;19;19938;-70
2023/10/05 06:50:49;;;;;;;9.02;1.73;;;;;;;13.65;90.27;102115.91;7395511;19;20273;-69
2023/10/05 06:53:18;;;;;;;8.25;1.67;;;;;;;13.70;89.91;102126.22;7392797;19;19926;-70
2023/10/05 06:55:46;;;;;;;7.85;1.77;;;;;;;13.75;90.02;102134.72;7385145;19;20317;-70
2023/10/05 06:58:15;;;;;;;13.30;2.00;;;;;;;13.80;89.79;102126.94;7391761;19;19922;-70
2023/10/05 07:00:44;;;;;;;8.05;2.75;;;;;;;13.85;89.62;102138.13;7395665;19;20475;-69
2023/10/05 07:03:12;;;;;;;10.38;2.13;;;;;;;13.89;89.96;102137.59;7394037;19;19948;-70
2023/10/05 07:05:41;;;;;;;10.20;1.70;;;;;;;13.94;89.97;102135.22;7398666;19;20710;-70
2023/10/05 07:08:14;;;;;;;7.07;1.90;;;;;;;13.99;89.58;102142.84;7396759;19;19919;-70
2023/10/05 07:10:42;;;;;;;11.10;2.30;;;;;;;14.04;89.60;102157.59;7390468;19;19919;-70
2023/10/05 07:13:11;;;;;;;8.25;1.85;;;;;;;14.05;89.41;102147.63;7396315;19;19982;-70
2023/10/05 07:15:40;;;;;;;8.88;1.60;;;;;;;14.06;89.96;102150.13;7398846;19;19927;-70
2023/10/05 07:18:09;;;;;;;8.90;1.55;;;;;;;14.07;89.88;102151.84;7398892;19;20535;-70
2023/10/05 07:20:41;;;;;;;10.27;1.95;;;;;;;14.08;90.33;102149.97;7396330;19;19919;-70
2023/10/05 07:23:13;;;;;;;8.05;2.28;;;;;;;14.12;90.51;102145.91;7397047;19;19962;-70
2023/10/05 07:25:41;;;;;;;9.60;2.10;;;;;;;14.15;90.24;102147.47;7396522;19;20321;-70
2023/10/05 07:28:14;;;;;;;9.57;2.15;;;;;;;14.19;90.28;102157.78;7395806;19;20258;-70
2023/10/05 07:30:44;;;;;;;13.05;1.80;;;;;;;14.24;90.46;102160.00;7398925;19;20255;-70
2023/10/05 07:33:14;;;;;;;5.72;1.20;;;;;;;14.27;90.53;102159.66;7394417;19;20290;-70
2023/10/05 07:35:43;;;;;;;13.13;2.33;;;;;;;14.29;90.42;102163.03;7399314;19;19954;-70
2023/10/05 07:38:14;;;;;;;5.53;1.90;;;;;;;14.30;90.67;102168.28;7397525;19;19922;-70
2023/10/05 07:40:43;;;;;;;10.48;2.20;;;;;;;14.33;90.87;102178.78;7396001;19;19919;-71
2023/10/05 07:43:12;;;;;;;16.27;2.70;;;;;;;14.34;90.38;102177.75;7399032;19;19926;-70
2023/10/05 07:45:41;;;;;;;8.77;1.80;;;;;;;14.38;90.56;102187.28;7392644;19;19926;-70
2023/10/05 07:48:09;;;;;;;10.82;1.77;;;;;;;14.40;90.19;102190.69;7390791;19;19926;-71
2023/10/05 07:50:38;;;;;;;12.10;2.15;;;;;;;14.42;90.44;102191.34;7396160;19;19927;-71
2023/10/05 07:53:07;;;;;;;9.70;2.42;;;;;;;14.44;90.47;102191.19;7391345;19;19922;-70
2023/10/05 07:55:38;;;;;;;8.27;1.98;;;;;;;14.44;90.65;102211.03;7392813;19;20476;-70
2023/10/05 07:58:12;;;;;;;8.73;1.95;;;;;;;14.47;90.37;102198.97;7387282;19;19918;-71
2023/10/05 08:00:45;;;;;;;8.25;1.60;;;;;;;14.48;90.65;102211.53;7395420;19;19950;-72
2023/10/05 08:03:14;;;;;;;9.40;1.98;;;;;;;14.48;90.26;102208.81;7395147;19;19990;-70
2023/10/05 08:05:43;;;;;;;10.10;2.45;;;;;;;14.50;90.26;102212.19;7398342;19;19922;-70
2023/10/05 08:08:14;;;;;;;7.60;1.83;;;;;;;14.53;90.47;102212.72;7395746;19;19918;-70
2023/10/05 08:10:45;;;;;;;15.75;2.38;;;;;;;14.57;90.87;102215.06;7396922;19;20349;-70
2023/10/05 08:13:16;;;;;;;8.07;1.83;;;;;;;14.61;90.34;102220.00;7394437;19;19926;-70
2023/10/05 08:15:45;;;;;;;5.38;1.95;;;;;;;14.66;90.20;102216.78;7391026;19;19947;-70
2023/10/05 08:18:13;;;;;;;8.70;1.45;;;;;;;14.73;89.86;102228.63;7394207;19;19919;-71
2023/10/05 08:20:42;;;;;;;14.10;1.98;;;;;;;14.80;89.69;102237.75;7393384;19;19918;-71
2023/10/05 08:23:12;;;;;;;11.88;2.50;;;;;;;14.84;89.78;102236.44;7392527;19;19926;-70
2023/10/05 08:25:41;;;;;;;10.13;1.83;;;;;;;14.84;90.19;102245.38;7393862;19;19931;-70
2023/10/05 08:28:12;;;;;;;8.75;3.20;;;;;;;14.82;91.02;102250.16;7394876;19;19919;-70
2023/10/05 08:30:45;;;;;;;9.05;1.98;;;;;;;14.79;91.55;102249.66;7393743;19;20038;-71
2023/10/05 08:33:19;;;;;;;5.97;1.85;;;;;;;14.71;92.10;102263.22;7394619;19;20393;-70
2023/10/05 08:35:48;;;;;;;8.68;2.03;;;;;;;14.66;91.81;102255.59;7396949;19;19927;-70
2023/10/05 08:38:17;;;;;;;9.35;2.38;;;;;;;14.62;92.44;102269.66;7396133;19;19946;-70
2023/10/05 08:40:48;;;;;;;7.90;2.00;;;;;;;14.57;93.49;102267.47;7387489;19;19919;-71
2023/10/05 08:43:20;;;;;;;9.40;1.90;;;;;;;14.57;93.81;102272.03;7386667;19;20338;-70
2023/10/05 08:45:51;;;;;;;11.32;1.92;;;;;;;14.57;93.70;102274.75;7394835;19;19923;-70
2023/10/05 08:48:28;;;;;;;9.35;2.28;;;;;;;14.53;94.71;102280.50;7392734;19;19931;-70
2023/10/05 08:50:58;;;;;;;6.00;1.73;;;;;;;14.48;95.22;102276.59;7392839;19;19937;-70
2023/10/05 08:53:27;;;;;;;11.73;2.35;;;;;;;14.45;96.24;102285.09;7392770;19;19922;-70
2023/10/05 08:55:59;;;;;;;12.40;2.22;;;;;;;14.40;96.78;102282.03;7393133;19;19929;-70
2023/10/05 08:58:34;;;;;;;5.95;2.00;;;;;;;14.36;97.64;102286.94;7385423;19;20026;-70
2023/10/05 09:01:03;;;;;;;9.90;2.00;;;;;;;14.32;97.64;102293.69;7388259;19;19929;-70
2023/10/05 09:03:35;;;;;;;8.10;1.70;;;;;;;14.31;98.31;102299.25;7394148;19;19918;-71
2023/10/05 09:08:51;;;;;;;8.60;2.25;;;;;;;14.27;98.65;102304.16;7393092;19;19945;-70
2023/10/05 09:11:23;;;;;;;8.60;2.03;;;;;;;14.27;98.92;102301.44;7396073;19;20365;-70
2023/10/05 09:13:55;;;;;;;4.65;1.88;;;;;;;14.30;98.99;102313.81;7389124;19;19937;-70
2023/10/05 09:16:30;;;;;;;8.98;1.48;;;;;;;14.32;98.50;102318.06;7389252;19;20317;-70
2023/10/05 09:19:00;;;;;;;8.88;1.63;;;;;;;14.34;98.75;102318.75;7395747;19;19926;-70
2023/10/05 09:21:50;;;;;;;8.38;1.85;;;;;;;14.34;98.54;102328.72;7401068;19;19995;-70
2023/10/05 09:24:22;;;;;;;9.68;2.38;;;;;;;14.39;98.93;102318.28;7400986;19;19935;-70
2023/10/05 09:27:09;;;;;;;8.60;2.00;;;;;;;14.43;99.07;102327.78;7401366;19;20301;-70
2023/10/05 09:29:42;;;;;;;8.93;1.85;;;;;;;14.53;98.72;102333.91;7400823;19;19922;-70
2023/10/05 09:32:25;;;;;;;5.78;1.75;;;;;;;14.57;98.59;102340.69;7400525;19;19944;-70
2023/10/05 09:34:56;;;;;;;5.18;1.92;;;;;;;14.68;98.41;102334.91;7390126;19;19956;-70
2023/10/05 09:37:27;;;;;;;11.93;2.38;;;;;;;14.77;97.65;102346.63;7398449;19;19918;-70
2023/10/05 09:39:59;;;;;;;8.35;2.28;;;;;;;14.85;97.21;102346.63;7401496;19;19930;-70
2023/10/05 09:42:33;;;;;;;9.73;2.42;;;;;;;14.96;96.81;102340.88;7399099;19;19931;-70
2023/10/05 09:45:12;;;;;;;9.30;2.00;;;;;;;15.07;96.56;102345.94;7399241;19;20002;-70
2023/10/05 09:47:46;;;;;;;8.88;1.83;;;;;;;15.20;95.90;102342.72;7397122;19;19922;-70
2023/10/05 09:50:17;;;;;;;11.63;2.50;;;;;;;15.30;95.55;102346.09;7383593;19;19926;-70
2023/10/05 09:52:46;;;;;;;7.57;2.10;;;;;;;15.44;94.74;102353.56;7395181;19;20345;-70
2023/10/05 09:55:17;;;;;;;6.05;1.83;;;;;;;15.56;94.39;102354.06;7395552;19;19943;-69
2023/10/05 09:57:46;;;;;;;9.00;2.08;;;;;;;15.62;94.04;102359.63;7395639;19;19943;-69
2023/10/05 10:00:30;;;;;;;9.82;2.28;;;;;;;15.72;93.93;102360.31;7375823;19;19948;-70
2023/10/05 10:03:00;;;;;;;7.78;1.90;;;;;;;15.74;92.90;102366.41;7393082;19;19943;-70
2023/10/05 10:05:34;;;;;;;8.00;2.00;;;;;;;15.68;92.39;102361.66;7397508;19;19919;-69
2023/10/05 10:08:12;;;;;;;8.77;2.00;;;;;;;15.68;92.95;102347.25;7398295;19;20309;-69
2023/10/05 10:10:51;;;;;;;6.78;2.10;;;;;;;15.67;93.37;102354.53;7397956;19;19926;-69
2023/10/05 10:13:23;;;;;;;9.85;2.13;;;;;;;15.67;93.61;102359.13;7398376;19;19923;-69
2023/10/05 10:15:56;;;;;;;5.18;1.65;;;;;;;15.65;92.91;102358.47;7395922;19;19922;-69
2023/10/05 10:18:37;;;;;;;7.30;1.52;;;;;;;15.62;92.76;102350.66;7392317;19;19951;-69
2023/10/05 10:21:12;;;;;;;7.25;1.38;;;;;;;15.62;92.44;102354.22;7383197;19;19943;-68
2023/10/05 10:23:44;;;;;;;3.40;1.05;;;;;;;15.67;92.10;102356.41;7399050;19;19923;-68
2023/10/05 10:26:16;;;;;;;3.22;1.42;;;;;;;15.77;91.74;102354.34;7399277;19;20013;-68
2023/10/05 10:28:49;;;;;;;3.40;1.42;;;;;;;15.81;91.73;102356.53;7393099;19;19937;-68
2023/10/05 10:31:25;;;;;;;4.90;1.55;;;;;;;15.78;91.24;102353.31;7395450;19;19923;-69
2023/10/05 10:33:54;;;;;;;3.83;1.20;;;;;;;15.76;91.67;102358.94;7398102;19;20070;-69
2023/10/05 10:36:26;;;;;;;6.03;2.10;;;;;;;15.87;91.61;102353.13;7390338;19;19997;-69
2023/10/05 10:38:59;;;;;;;4.20;2.13;;;;;;;15.99;91.87;102364.47;7397982;19;19926;-69
2023/10/05 10:41:30;;;;;;;6.60;1.63;;;;;;;16.13;90.28;102362.88;7397399;19;20317;-69
2023/10/05 10:44:00;;;;;;;5.15;1.60;;;;;;;16.26;89.98;102368.59;7396535;19;19926;-69
2023/10/05 10:46:34;;;;;;;5.50;1.50;;;;;;;16.39;89.56;102368.00;7390879;19;19925;-69
2023/10/05 10:49:07;;;;;;;3.92;1.23;;;;;;;16.60;89.30;102370.97;7394707;19;19930;-69
2023/10/05 10:51:37;;;;;;;6.28;1.95;;;;;;;16.84;87.37;102372.66;7396410;19;19943;-68
2023/10/05 10:54:14;;;;;;;5.00;1.50;;;;;;;16.95;86.49;102369.53;7393988;19;19950;-69
2023/10/05 10:56:47;;;;;;;5.30;1.45;;;;;;;17.01;86.45;102366.06;7394011;19;19964;-69
2023/10/05 10:59:30;;;;;;;3.92;1.30;;;;;;;16.95;85.97;102370.38;7394417;19;19970;-69
2023/10/05 11:02:11;;;;;;;7.00;1.63;;;;;;;16.98;86.31;102367.28;7388181;19;19922;-69
2023/10/05 11:04:39;;;;;;;5.63;1.63;;;;;;;17.04;86.42;102371.97;7392688;19;19918;-69
2023/10/05 11:07:10;;;;;;;4.72;1.30;;;;;;;17.09;86.11;102361.38;7394467;19;19978;-69
2023/10/05 11:09:48;;;;;;;6.07;1.45;;;;;;;17.21;85.34;102370.00;7395853;19;19911;-70
2023/10/05 11:12:21;;;;;;;2.78;1.30;;;;;;;17.47;83.88;102377.75;7390201;19;19930;-70
2023/10/05 11:14:56;;;;;;;4.70;1.35;;;;;;;17.58;84.04;102377.31;7387319;19;20286;-71
2023/10/05 11:17:35;;;;;;;5.55;1.40;;;;;;;17.42;84.85;102364.69;7387444;19;19926;-71
2023/10/05 11:20:18;;;;;;;9.60;1.77;;;;;;;17.24;85.15;102378.63;7386476;19;20345;-72
2023/10/05 11:22:47;;;;;;;7.03;1.95;;;;;;;17.09;86.53;102377.72;7386981;19;20499;-71
2023/10/05 11:25:23;;;;;;;5.80;1.52;;;;;;;16.95;87.40;102383.16;7383148;19;19926;-72
2023/10/05 11:27:59;;;;;;;4.57;1.30;;;;;;;16.68;86.06;102379.06;7379948;19;19922;-70
2023/10/05 11:30:41;;;;;;;5.60;1.85;;;;;;;16.43;88.70;102383.78;7389664;19;19954;-70
2023/10/05 11:33:17;;;;;;;6.97;1.65;;;;;;;16.16;89.34;102387.84;7388745;19;19926;-71
2023/10/05 11:35:51;;;;;;;6.95;1.30;;;;;;;15.74;89.63;102388.16;7387078;19;19978;-70
2023/10/05 11:38:26;;;;;;;6.40;1.52;;;;;;;15.37;91.63;102383.25;7388757;19;19927;-70
2023/10/05 11:40:56;;;;;;;5.65;1.67;;;;;;;15.12;93.16;102388.88;7395120;19;19926;-70
2023/10/05 11:43:26;;;;;;;6.93;1.52;;;;;;;15.00;94.39;102393.81;7377849;19;19923;-71
2023/10/05 11:45:59;;;;;;;4.90;1.10;;;;;;;14.90;95.86;102391.25;7396596;19;19933;-70
2023/10/05 11:48:40;;;;;;;6.22;1.60;;;;;;;14.86;95.57;102387.16;7395169;19;19919;-70
2023/10/05 11:51:13;;;;;;;7.75;1.63;;;;;;;14.83;95.87;102394.81;7396176;19;19929;-70
2023/10/05 11:53:43;;;;;;;9.93;2.83;;;;;;;14.80;96.32;102387.81;7378442;19;19934;-70